createdAt,value
2023-05-18T00:07:26.834Z,11.18
2023-05-18T00:17:14.380Z,11.70
2023-05-18T00:20:40.049Z,12.57
2023-05-18T00:23:23.516Z,12.63
2023-05-18T00:28:57.215Z,13.20
2023-05-18T00:32:23.845Z,12.95
2023-05-18T00:35:38.364Z,12.70
2023-05-18T00:38:30.849Z,13.80
2023-05-18T00:41:10.934Z,13.80
2023-05-18T00:47:06.998Z,13.88
2023-05-18T00:54:13.468Z,11.15
2023-05-18T00:56:29.463Z,11.18
2023-05-18T01:06:27.260Z,6.50
2023-05-18T01:12:55.544Z,6.55
2023-05-18T01:27:35.113Z,7.22
2023-05-18T01:37:45.138Z,4.40
2023-05-18T01:49:08.924Z,4.70
2023-05-18T01:51:58.032Z,4.55
2023-05-18T01:56:15.261Z,5.30
2023-05-18T01:59:27.338Z,4.05
2023-05-18T02:09:39.927Z,3.58
2023-05-18T02:16:33.488Z,3.15
2023-05-18T02:42:41.606Z,3.00
2023-05-18T04:53:54.413Z,1.80
2023-05-18T04:56:26.658Z,2.75
2023-05-18T04:58:53.476Z,2.90
2023-05-18T05:01:20.534Z,2.15
2023-05-18T05:03:47.853Z,1.83
2023-05-18T05:06:18.462Z,2.13
2023-05-18T05:08:51.748Z,2.22
2023-05-18T05:11:18.597Z,2.55
2023-05-18T05:13:49.448Z,3.35
2023-05-18T05:16:19.065Z,1.90
2023-05-18T05:18:48.539Z,2.38
2023-05-18T05:21:18.606Z,2.40
2023-05-18T05:25:21.066Z,2.50
2023-05-18T05:27:57.944Z,2.30
2023-05-18T05:30:31.642Z,2.40
2023-05-18T05:33:06.690Z,2.10
2023-05-18T05:35:36.398Z,3.00
2023-05-18T05:38:12.497Z,2.30
2023-05-18T05:40:51.007Z,2.35
2023-05-18T05:43:20.641Z,2.45
2023-05-18T05:46:15.719Z,2.25
2023-05-18T05:48:57.281Z,2.08
2023-05-18T05:51:31.478Z,2.25
2023-05-18T05:54:09.305Z,2.53
2023-05-18T05:56:40.697Z,2.33
2023-05-18T05:59:11.002Z,2.88
2023-05-18T07:37:03.611Z,2.08
2023-05-18T07:39:30.357Z,2.35
2023-05-18T07:41:57.135Z,2.25
2023-05-18T07:44:24.478Z,1.92
2023-05-18T07:46:51.510Z,1.80
2023-05-18T07:49:18.403Z,1.73
2023-05-18T07:51:45.413Z,2.90
2023-05-18T07:54:12.870Z,2.13
2023-05-18T07:56:45.071Z,1.73
2023-05-18T07:59:12.108Z,2.22
2023-05-18T08:01:39.955Z,2.47
2023-05-18T08:04:06.938Z,1.80
2023-05-18T08:06:33.868Z,2.38
2023-05-18T08:09:00.794Z,2.47
2023-05-18T08:11:27.671Z,1.90
2023-05-18T08:13:54.597Z,1.63
2023-05-18T08:16:21.545Z,1.45
2023-05-18T08:18:48.494Z,1.95
2023-05-18T08:21:15.550Z,1.45
2023-05-18T08:23:44.707Z,1.48
2023-05-18T08:26:13.947Z,1.77
2023-05-18T08:28:41.070Z,2.20
2023-05-18T08:31:09.499Z,2.50
2023-05-18T08:33:36.363Z,1.85
2023-05-18T08:36:03.552Z,1.80
2023-05-18T08:38:33.855Z,1.70
2023-05-18T08:41:38.742Z,1.88
2023-05-18T08:44:30.817Z,1.90
2023-05-18T08:46:58.703Z,1.95
2023-05-18T08:49:27.401Z,2.47
2023-05-18T08:52:00.737Z,1.60
2023-05-18T08:54:30.167Z,2.58
2023-05-18T08:56:58.761Z,2.17
2023-05-18T08:59:30.359Z,2.00
2023-05-18T09:01:57.456Z,1.80
2023-05-18T09:04:24.401Z,1.52
2023-05-18T09:06:53.918Z,2.03
2023-05-18T09:09:22.513Z,1.90
2023-05-18T09:11:50.839Z,1.88
2023-05-18T09:14:17.756Z,1.58
2023-05-18T09:16:44.824Z,1.63
2023-05-18T09:19:11.712Z,2.50
2023-05-18T09:21:39.291Z,2.00
2023-05-18T09:24:06.680Z,1.80
2023-05-18T09:26:33.834Z,1.80
2023-05-18T09:29:01.410Z,1.48
2023-05-18T09:31:31.108Z,2.00
2023-05-18T09:34:00.159Z,2.05
2023-05-18T09:36:29.309Z,2.25
2023-05-18T09:38:56.441Z,1.98
2023-05-18T09:41:27.088Z,2.47
2023-05-18T09:43:54.866Z,1.83
2023-05-18T09:46:22.285Z,1.63
2023-05-18T09:48:52.379Z,1.73
2023-05-18T09:51:19.302Z,1.85
2023-05-18T09:53:53.708Z,2.15
2023-05-18T09:56:24.543Z,1.88
2023-05-18T09:58:51.807Z,2.00
2023-05-18T10:01:19.056Z,1.80
2023-05-18T10:03:48.502Z,1.90
2023-05-18T10:06:19.842Z,1.90
2023-05-18T10:08:46.877Z,2.00
2023-05-18T10:11:19.656Z,2.55
2023-05-18T10:13:56.282Z,1.90
2023-05-18T10:16:24.294Z,2.53
2023-05-18T10:18:54.291Z,2.20
2023-05-18T10:21:24.521Z,1.90
2023-05-18T10:23:52.667Z,2.58
2023-05-18T10:26:23.379Z,2.35
2023-05-18T10:28:52.438Z,2.67
2023-05-18T10:31:21.819Z,1.80
2023-05-18T10:33:52.011Z,2.60
2023-05-18T10:36:19.552Z,2.42
2023-05-18T10:38:47.399Z,2.70
2023-05-18T10:41:15.204Z,2.58
2023-05-18T10:43:50.944Z,2.08
2023-05-18T10:46:18.590Z,2.20
2023-05-18T10:48:53.233Z,2.17
2023-05-18T10:51:23.707Z,2.03
2023-05-18T10:53:50.620Z,1.70
2023-05-18T10:56:17.781Z,1.80
2023-05-18T10:58:46.262Z,2.13
2023-05-18T11:01:16.032Z,1.83
2023-05-18T11:03:43.034Z,2.33
2023-05-18T11:06:12.087Z,1.85
2023-05-18T11:08:49.838Z,1.80
2023-05-18T11:11:19.961Z,2.10
2023-05-18T11:13:51.699Z,1.85
2023-05-18T11:16:19.894Z,1.98
2023-05-18T11:18:51.640Z,1.90
2023-05-18T11:21:20.034Z,2.40
2023-05-18T11:24:17.361Z,1.20
2023-05-18T11:26:51.100Z,1.55
2023-05-18T11:29:31.432Z,1.65
2023-05-18T11:31:58.858Z,1.65
2023-05-18T11:34:53.211Z,1.80
2023-05-18T11:37:38.448Z,1.92
2023-05-18T11:40:13.334Z,1.67
2023-05-18T11:42:40.686Z,1.60
2023-05-18T11:45:11.026Z,1.42
2023-05-18T11:47:40.716Z,1.50
2023-05-18T11:50:10.304Z,1.52
2023-05-18T11:52:48.109Z,1.50
2023-05-18T11:55:16.696Z,1.77
2023-05-18T11:57:45.603Z,1.35
2023-05-18T12:00:13.415Z,1.45
2023-05-18T12:02:44.527Z,1.73
2023-05-18T12:05:11.999Z,1.30
2023-05-18T12:07:41.930Z,1.30
2023-05-18T12:10:14.832Z,1.83
2023-05-18T12:12:42.888Z,1.67
2023-05-18T12:15:11.717Z,2.10
2023-05-18T12:17:42.858Z,1.50
2023-05-18T12:20:12.432Z,1.83
2023-05-18T12:22:52.544Z,1.37
2023-05-18T12:25:25.725Z,1.45
2023-05-18T12:27:54.686Z,1.55
2023-05-18T12:30:25.698Z,1.60
2023-05-18T12:32:55.232Z,1.65
2023-05-18T12:35:25.736Z,1.63
2023-05-18T12:40:20.543Z,1.15
2023-05-18T12:43:00.804Z,1.83
2023-05-18T12:45:32.834Z,1.60
2023-05-18T12:48:10.997Z,0.90
2023-05-18T12:50:50.917Z,1.65
2023-05-18T12:53:18.428Z,1.63
2023-05-18T12:55:45.419Z,3.28
2023-05-18T12:58:18.487Z,1.35
2023-05-18T13:00:47.510Z,1.23
2023-05-18T13:03:17.169Z,1.42
2023-05-18T13:05:46.121Z,1.58
2023-05-18T13:08:22.017Z,1.38
2023-05-18T13:10:53.286Z,1.55
2023-05-18T13:13:28.840Z,1.60
2023-05-18T13:15:55.829Z,1.20
2023-05-18T13:18:22.675Z,2.15
2023-05-18T13:20:51.688Z,1.27
2023-05-18T13:23:21.233Z,1.10
2023-05-18T13:25:51.490Z,1.20
2023-05-18T13:28:20.326Z,1.75
2023-05-18T13:30:49.118Z,1.77
2023-05-18T13:33:17.953Z,1.55
2023-05-18T13:35:45.086Z,1.30
2023-05-18T13:38:13.767Z,1.25
2023-05-18T13:40:41.911Z,1.52
2023-05-18T13:43:10.918Z,1.40
2023-05-18T13:45:39.420Z,1.25
2023-05-18T13:48:09.612Z,1.73
2023-05-18T13:50:37.782Z,1.20
2023-05-18T13:53:04.827Z,2.25
2023-05-18T13:55:33.266Z,1.17
2023-05-18T13:58:00.976Z,1.60
2023-05-18T14:00:28.130Z,1.60
2023-05-18T14:02:55.276Z,1.73
2023-05-18T14:05:22.542Z,1.80
2023-05-18T14:07:50.265Z,2.00
2023-05-18T14:10:17.166Z,1.63
2023-05-18T14:12:44.652Z,1.83
2023-05-18T14:15:13.887Z,1.60
2023-05-18T14:17:41.801Z,1.40
2023-05-18T14:20:11.288Z,1.80
2023-05-18T14:22:38.257Z,1.70
2023-05-18T14:25:05.678Z,1.83
2023-05-18T14:27:32.722Z,1.75
2023-05-18T14:30:02.211Z,1.85
2023-05-18T14:32:29.265Z,2.03
2023-05-18T14:34:58.105Z,2.33
2023-05-18T14:37:25.289Z,1.80
2023-05-18T14:39:52.091Z,1.65
2023-05-18T14:42:18.968Z,2.22
2023-05-18T14:44:46.178Z,1.83
2023-05-18T14:47:13.108Z,1.65
2023-05-18T15:04:29.208Z,1.65
2023-05-18T15:07:16.282Z,2.20
2023-05-18T15:48:04.539Z,2.30
2023-05-18T16:02:24.388Z,2.38
2023-05-18T16:47:24.324Z,2.80
2023-05-18T16:53:24.005Z,3.78
2023-05-18T16:57:31.869Z,4.30
2023-05-18T17:00:19.637Z,7.05
2023-05-18T17:02:41.433Z,7.80
2023-05-18T17:05:11.313Z,3.78
2023-05-18T17:07:44.073Z,4.65
2023-05-18T17:10:16.815Z,3.67
2023-05-18T17:12:43.834Z,3.53
2023-05-18T17:15:31.648Z,3.88
2023-05-18T17:18:01.234Z,3.63
2023-05-18T17:20:28.470Z,4.55
2023-05-18T17:22:56.972Z,3.53
2023-05-18T17:25:26.407Z,3.30
2023-05-18T17:28:00.133Z,3.40
2023-05-18T17:30:27.178Z,3.80
2023-05-18T17:32:57.569Z,7.43
2023-05-18T17:35:25.727Z,21.30
2023-05-18T17:37:54.934Z,11.85
2023-05-18T17:40:24.449Z,6.63
2023-05-18T17:42:56.649Z,3.10
2023-05-18T17:45:23.566Z,3.40
2023-05-18T17:47:57.814Z,3.13
2023-05-18T17:50:33.940Z,3.30
2023-05-18T17:53:01.397Z,3.08
2023-05-18T17:55:28.425Z,3.75
2023-05-18T17:57:59.628Z,4.82
2023-05-18T18:00:29.293Z,3.15
2023-05-18T18:02:59.388Z,3.38
2023-05-18T18:05:26.630Z,3.85
2023-05-18T18:07:58.799Z,3.00
2023-05-18T18:10:28.657Z,3.05
2023-05-18T18:12:58.056Z,2.85
2023-05-18T18:18:14.512Z,3.55
2023-05-18T18:20:43.733Z,3.50
2023-05-18T18:23:12.026Z,3.47
2023-05-18T18:25:39.129Z,3.50
2023-05-18T18:28:08.114Z,3.20
2023-05-18T18:30:38.215Z,3.90
2023-05-18T18:33:06.343Z,2.85
2023-05-18T18:35:34.629Z,3.13
2023-05-18T18:38:01.613Z,3.00
2023-05-18T18:40:28.515Z,3.30
2023-05-18T18:42:58.242Z,3.28
2023-05-18T18:45:34.260Z,3.50
2023-05-18T18:48:22.637Z,3.17
2023-05-18T18:51:28.225Z,2.85
2023-05-18T18:54:06.857Z,3.45
2023-05-18T18:56:36.871Z,3.45
2023-05-18T18:59:06.651Z,2.70
2023-05-18T19:01:33.940Z,2.70
2023-05-18T19:04:33.203Z,3.47
2023-05-18T19:07:09.524Z,3.50
2023-05-18T19:09:49.240Z,3.13
2023-05-18T19:12:21.381Z,4.13
2023-05-18T19:14:53.686Z,3.33
2023-05-18T19:17:21.294Z,4.20
2023-05-18T19:19:55.432Z,2.70
2023-05-18T19:23:09.693Z,3.28
2023-05-18T19:25:42.692Z,3.42
2023-05-18T19:28:09.754Z,2.63
2023-05-18T19:30:42.049Z,3.10
2023-05-18T19:33:16.160Z,2.63
2023-05-18T19:35:45.594Z,3.78
2023-05-18T19:38:13.744Z,3.80
2023-05-18T19:40:40.762Z,2.92
2023-05-18T19:43:07.803Z,2.95
2023-05-18T19:45:35.165Z,3.25
2023-05-18T19:48:09.973Z,2.97
2023-05-18T19:50:39.782Z,3.38
2023-05-18T19:53:15.217Z,3.00
2023-05-18T19:55:45.727Z,3.78
2023-05-18T19:58:15.049Z,3.88
2023-05-18T20:00:48.685Z,3.40
2023-05-18T20:03:16.539Z,3.80
2023-05-18T20:05:43.868Z,3.20
2023-05-18T20:08:13.159Z,4.15
2023-05-18T20:10:40.042Z,3.47
2023-05-18T20:13:10.186Z,3.80
2023-05-18T20:15:41.549Z,3.80
2023-05-18T20:18:39.284Z,4.15
2023-05-18T20:21:10.598Z,3.75
2023-05-18T20:23:42.351Z,3.83
2023-05-18T20:26:09.114Z,4.90
2023-05-18T20:28:35.863Z,3.75
2023-05-18T20:31:02.646Z,3.80
2023-05-18T20:33:30.284Z,3.22
2023-05-18T20:35:57.145Z,3.55
2023-05-18T20:38:25.999Z,2.83
2023-05-18T20:40:53.648Z,3.10
2023-05-18T20:43:21.260Z,3.17
2023-05-18T20:45:49.557Z,3.33
2023-05-18T20:48:26.496Z,3.35
2023-05-18T20:50:53.424Z,3.20
2023-05-18T20:53:20.456Z,3.15
2023-05-18T20:55:47.604Z,4.00
2023-05-18T20:58:18.510Z,3.40
2023-05-18T21:00:47.905Z,3.60
2023-05-18T21:03:15.203Z,3.72
2023-05-18T21:05:45.709Z,3.20
2023-05-18T21:10:41.859Z,4.03
2023-05-18T21:13:08.868Z,3.33
2023-05-18T21:15:37.369Z,3.75
2023-05-18T21:18:04.839Z,3.95
2023-05-18T21:20:32.703Z,3.42
2023-05-18T21:22:59.870Z,3.35
2023-05-18T21:25:26.872Z,3.15
2023-05-18T21:27:53.641Z,3.38
2023-05-18T21:30:20.412Z,3.58
2023-05-18T21:32:48.280Z,3.50
2023-05-18T21:35:15.487Z,2.88
2023-05-18T21:37:42.344Z,3.17
2023-05-18T21:40:09.713Z,3.53
2023-05-18T21:42:38.139Z,3.83
2023-05-18T21:45:05.297Z,3.17
2023-05-18T21:47:32.039Z,3.75
2023-05-18T21:49:58.735Z,3.38
2023-05-18T21:52:25.512Z,3.35
2023-05-18T21:54:52.219Z,3.33
2023-05-18T21:57:19.310Z,4.05
2023-05-18T21:59:46.162Z,3.78
2023-05-18T22:02:12.886Z,3.92
2023-05-18T22:04:39.735Z,4.00
2023-05-18T22:07:06.631Z,3.97
2023-05-18T22:09:33.360Z,3.70
2023-05-18T22:12:00.115Z,3.05
2023-05-18T22:14:26.890Z,3.22
2023-05-18T22:16:53.614Z,3.50
2023-05-18T22:19:20.375Z,3.40
2023-05-18T22:21:47.300Z,4.28
2023-05-18T22:24:14.084Z,3.85
2023-05-18T22:26:42.979Z,3.75
2023-05-18T22:29:09.965Z,3.42
2023-05-18T22:31:36.942Z,3.47
2023-05-18T22:34:04.004Z,3.67
2023-05-18T22:36:30.796Z,3.80
2023-05-18T22:38:57.869Z,3.83
2023-05-18T22:41:24.762Z,3.80
2023-05-18T22:43:51.540Z,4.28
2023-05-18T22:46:18.773Z,4.68
2023-05-18T22:48:45.566Z,4.40
2023-05-18T22:51:12.351Z,3.97
2023-05-18T22:53:39.093Z,5.13
2023-05-18T22:56:07.077Z,4.47
2023-05-18T22:58:33.913Z,4.03
2023-05-18T23:01:01.006Z,4.90
2023-05-18T23:03:27.721Z,4.38
2023-05-18T23:05:54.637Z,4.63
2023-05-18T23:08:21.399Z,5.22
2023-05-18T23:10:48.218Z,4.60
2023-05-18T23:13:16.255Z,5.07
2023-05-18T23:15:43.109Z,5.30
2023-05-18T23:18:10.142Z,5.15
2023-05-18T23:20:38.714Z,4.78
2023-05-18T23:23:05.574Z,4.75
2023-05-18T23:25:32.325Z,4.45
2023-05-18T23:27:59.130Z,4.55
2023-05-18T23:30:26.082Z,4.85
2023-05-18T23:32:53.300Z,4.97
2023-05-18T23:35:20.579Z,5.75
2023-05-18T23:37:49.845Z,5.95
2023-05-18T23:40:19.001Z,5.70
2023-05-18T23:42:46.378Z,5.63
2023-05-18T23:45:13.911Z,5.85
2023-05-18T23:47:40.939Z,5.60
2023-05-18T23:50:08.380Z,6.75
2023-05-18T23:52:36.288Z,5.30
2023-05-18T23:55:04.389Z,5.28
2023-05-18T23:57:31.643Z,5.53
2023-05-18T23:59:58.737Z,5.88
